createdAt,value
2018-08-25T00:00:05.032Z,1003.63
2018-08-25T00:00:31.200Z,1003.64
2018-08-25T00:00:57.379Z,1003.63
2018-08-25T00:01:23.512Z,1003.59
2018-08-25T00:01:49.674Z,1003.64
2018-08-25T00:02:15.801Z,1003.6
2018-08-25T00:02:41.965Z,1003.56
2018-08-25T00:03:08.104Z,1003.61
2018-08-25T00:03:34.365Z,1003.56
2018-08-25T00:04:00.513Z,1003.58
2018-08-25T00:04:26.652Z,1003.55
2018-08-25T00:04:52.837Z,1003.53
2018-08-25T00:05:18.961Z,1003.53
2018-08-25T00:05:45.092Z,1003.54
2018-08-25T00:06:11.251Z,1003.5
2018-08-25T00:06:37.384Z,1003.49
2018-08-25T00:07:03.582Z,1003.48
2018-08-25T00:07:29.677Z,1003.51
2018-08-25T00:07:55.829Z,1003.5
2018-08-25T00:08:21.992Z,1003.48
2018-08-25T00:08:48.170Z,1003.5
2018-08-25T00:09:14.338Z,1003.51
2018-08-25T00:09:40.486Z,1003.48
2018-08-25T00:10:06.624Z,1003.5
2018-08-25T00:10:32.762Z,1003.48
2018-08-25T00:10:58.899Z,1003.48
2018-08-25T00:11:25.038Z,1003.47
2018-08-25T00:11:51.224Z,1003.48
2018-08-25T00:12:17.515Z,1003.49
2018-08-25T00:12:44.014Z,1003.47
2018-08-25T00:13:10.152Z,1003.45
2018-08-25T00:13:36.321Z,1003.48
2018-08-25T00:14:02.453Z,1003.52
2018-08-25T00:14:28.593Z,1003.43
2018-08-25T00:14:54.731Z,1003.45
2018-08-25T00:15:20.859Z,1003.43
2018-08-25T00:15:47.017Z,1003.47
2018-08-25T00:16:13.227Z,1003.44
2018-08-25T00:16:39.365Z,1003.41
2018-08-25T00:17:05.498Z,1003.43
2018-08-25T00:17:31.655Z,1003.43
2018-08-25T00:17:57.789Z,1003.39
2018-08-25T00:18:23.914Z,1003.42
2018-08-25T00:18:50.070Z,1003.44
2018-08-25T00:19:16.210Z,1003.46
2018-08-25T00:19:42.344Z,1003.41
2018-08-25T00:20:08.479Z,1003.41
2018-08-25T00:20:34.615Z,1003.4
2018-08-25T00:21:00.760Z,1003.4
2018-08-25T00:21:26.912Z,1003.39
2018-08-25T00:21:53.044Z,1003.38
2018-08-25T00:22:19.188Z,1003.38
2018-08-25T00:22:45.340Z,1003.38
2018-08-25T00:23:11.482Z,1003.41
2018-08-25T00:23:37.610Z,1003.37
2018-08-25T00:24:03.748Z,1003.36
2018-08-25T00:24:29.876Z,1003.35
2018-08-25T00:24:56.042Z,1003.35
2018-08-25T00:25:22.199Z,1003.35
2018-08-25T00:25:48.354Z,1003.29
2018-08-25T00:26:14.492Z,1003.29
2018-08-25T00:26:40.625Z,1003.26
2018-08-25T00:27:06.757Z,1003.29
2018-08-25T00:27:32.894Z,1003.29
2018-08-25T00:27:59.057Z,1003.31
2018-08-25T00:28:25.214Z,1003.23
2018-08-25T00:28:51.348Z,1003.27
2018-08-25T00:29:17.501Z,1003.25
2018-08-25T00:29:43.640Z,1003.24
2018-08-25T00:30:09.798Z,1003.21
2018-08-25T00:30:35.954Z,1003.23
2018-08-25T00:31:02.114Z,1003.23
2018-08-25T00:31:28.252Z,1003.24
2018-08-25T00:31:54.378Z,1003.27
2018-08-25T00:32:20.538Z,1003.25
2018-08-25T00:32:46.676Z,1003.2
2018-08-25T00:33:12.834Z,1003.24
2018-08-25T00:33:38.984Z,1003.24
2018-08-25T00:34:05.123Z,1003.25
2018-08-25T00:34:31.251Z,1003.23
2018-08-25T00:34:57.393Z,1003.2
2018-08-25T00:35:23.520Z,1003.21
2018-08-25T00:35:49.657Z,1003.2
2018-08-25T00:36:15.792Z,1003.26
2018-08-25T00:36:41.922Z,1003.25
2018-08-25T00:37:08.081Z,1003.21
2018-08-25T00:37:34.211Z,1003.18
2018-08-25T00:38:00.349Z,1003.18
2018-08-25T00:38:26.482Z,1003.18
2018-08-25T00:38:52.612Z,1003.17
2018-08-25T00:39:18.750Z,1003.17
2018-08-25T00:39:44.884Z,1003.13
2018-08-25T00:40:11.016Z,1003.12
2018-08-25T00:40:37.155Z,1003.11
2018-08-25T00:41:03.310Z,1003.09
2018-08-25T00:41:29.462Z,1003.07
2018-08-25T00:41:55.589Z,1003.17
2018-08-25T00:42:21.724Z,1003.13
2018-08-25T00:42:47.856Z,1003.11
2018-08-25T00:43:14.012Z,1003.08
2018-08-25T00:43:40.142Z,1003.07
2018-08-25T00:44:06.287Z,1003.08
2018-08-25T00:44:32.418Z,1003.07
2018-08-25T00:44:58.547Z,1003.03
2018-08-25T00:45:24.678Z,1003
2018-08-25T00:45:50.815Z,1003.04
2018-08-25T00:46:16.951Z,1003.07
2018-08-25T00:46:43.084Z,1003.06
2018-08-25T00:47:09.226Z,1003.05
2018-08-25T00:47:35.384Z,1003.05
2018-08-25T00:48:01.547Z,1003.05
2018-08-25T00:48:27.671Z,1003.06
2018-08-25T00:48:53.828Z,1003.01
2018-08-25T00:49:19.964Z,1003.03
2018-08-25T00:49:46.093Z,1003
2018-08-25T00:50:12.228Z,1003.02
2018-08-25T00:50:38.371Z,1003.03
2018-08-25T00:51:04.500Z,1002.95
2018-08-25T00:51:30.628Z,1002.99
2018-08-25T00:51:56.761Z,1002.98
2018-08-25T00:52:22.894Z,1002.99
2018-08-25T00:52:49.030Z,1002.94
2018-08-25T00:53:15.161Z,1002.94
2018-08-25T00:53:41.299Z,1002.95
2018-08-25T00:54:07.455Z,1002.93
2018-08-25T00:54:33.592Z,1002.89
2018-08-25T00:54:59.731Z,1002.9
2018-08-25T00:55:25.857Z,1002.89
2018-08-25T00:55:51.991Z,1002.92
2018-08-25T00:56:18.153Z,1002.93
2018-08-25T00:56:44.297Z,1002.9
2018-08-25T00:57:10.432Z,1002.92
2018-08-25T00:57:36.560Z,1002.91
2018-08-25T00:58:02.696Z,1002.9
2018-08-25T00:58:28.834Z,1002.92
2018-08-25T00:58:54.974Z,1002.9
2018-08-25T00:59:21.122Z,1002.88
2018-08-25T00:59:47.255Z,1002.86
2018-08-25T01:00:13.381Z,1002.89
2018-08-25T01:00:39.524Z,1002.88
2018-08-25T01:01:05.681Z,1002.84
2018-08-25T01:01:31.843Z,1002.85
2018-08-25T01:01:58.000Z,1002.86
2018-08-25T01:02:24.173Z,1002.79
2018-08-25T01:02:50.346Z,1002.84
2018-08-25T01:03:16.503Z,1002.82
2018-08-25T01:03:42.636Z,1002.82
2018-08-25T01:04:08.773Z,1002.84
2018-08-25T01:04:34.908Z,1002.85
2018-08-25T01:05:01.036Z,1002.82
2018-08-25T01:05:27.172Z,1002.86
2018-08-25T01:05:53.329Z,1002.88
2018-08-25T01:06:19.464Z,1002.88
2018-08-25T01:06:45.598Z,1002.9
2018-08-25T01:07:11.760Z,1002.89
2018-08-25T01:07:37.891Z,1002.87
2018-08-25T01:08:04.027Z,1002.85
2018-08-25T01:08:30.181Z,1002.8
2018-08-25T01:08:56.338Z,1002.84
2018-08-25T01:09:22.466Z,1002.83
2018-08-25T01:09:48.602Z,1002.86
2018-08-25T01:10:14.734Z,1002.84
2018-08-25T01:10:40.870Z,1002.85
2018-08-25T01:11:07.046Z,1002.8
2018-08-25T01:11:33.183Z,1002.79
2018-08-25T01:11:59.334Z,1002.83
2018-08-25T01:12:25.473Z,1002.81
2018-08-25T01:12:51.601Z,1002.85
2018-08-25T01:13:17.754Z,1002.81
2018-08-25T01:13:43.882Z,1002.82
2018-08-25T01:14:10.017Z,1002.82
2018-08-25T01:14:36.150Z,1002.83
2018-08-25T01:15:02.285Z,1002.82
2018-08-25T01:15:28.419Z,1002.82
2018-08-25T01:15:54.589Z,1002.8
2018-08-25T01:16:20.733Z,1002.78
2018-08-25T01:16:46.866Z,1002.79
2018-08-25T01:17:13.025Z,1002.77
2018-08-25T01:17:39.168Z,1002.78
2018-08-25T01:18:05.294Z,1002.75
2018-08-25T01:18:31.421Z,1002.78
2018-08-25T01:18:57.581Z,1002.76
2018-08-25T01:19:23.718Z,1002.76
2018-08-25T01:19:49.853Z,1002.76
2018-08-25T01:20:16.016Z,1002.76
2018-08-25T01:20:42.181Z,1002.73
2018-08-25T01:21:08.309Z,1002.72
2018-08-25T01:21:34.472Z,1002.74
2018-08-25T01:22:00.630Z,1002.76
2018-08-25T01:22:26.769Z,1002.71
2018-08-25T01:22:52.924Z,1002.76
2018-08-25T01:23:19.052Z,1002.72
2018-08-25T01:23:45.188Z,1002.77
2018-08-25T01:24:11.319Z,1002.74
2018-08-25T01:24:37.453Z,1002.73
2018-08-25T01:25:03.591Z,1002.69
2018-08-25T01:25:29.727Z,1002.73
2018-08-25T01:25:55.860Z,1002.68
2018-08-25T01:26:21.994Z,1002.69
2018-08-25T01:26:48.148Z,1002.65
2018-08-25T01:27:14.284Z,1002.65
2018-08-25T01:27:40.413Z,1002.66
2018-08-25T01:28:06.570Z,1002.63
2018-08-25T01:28:32.703Z,1002.67
2018-08-25T01:28:58.858Z,1002.68
2018-08-25T01:29:24.978Z,1002.64
2018-08-25T01:29:51.129Z,1002.68
2018-08-25T01:30:17.265Z,1002.69
2018-08-25T01:30:43.402Z,1002.7
2018-08-25T01:31:09.534Z,1002.67
2018-08-25T01:31:35.688Z,1002.66
2018-08-25T01:32:01.823Z,1002.67
2018-08-25T01:32:27.956Z,1002.65
2018-08-25T01:32:54.124Z,1002.67
2018-08-25T01:33:20.257Z,1002.65
2018-08-25T01:33:46.393Z,1002.67
2018-08-25T01:34:12.523Z,1002.65
2018-08-25T01:34:38.701Z,1002.59
2018-08-25T01:35:04.833Z,1002.65
2018-08-25T01:35:30.974Z,1002.63
2018-08-25T01:35:57.098Z,1002.63
2018-08-25T01:36:23.257Z,1002.62
2018-08-25T01:36:49.396Z,1002.64
2018-08-25T01:37:15.528Z,1002.63
2018-08-25T01:37:41.690Z,1002.66
2018-08-25T01:38:07.847Z,1002.71
2018-08-25T01:38:34.006Z,1002.63
2018-08-25T01:39:00.164Z,1002.63
2018-08-25T01:39:26.298Z,1002.61
2018-08-25T01:39:52.435Z,1002.63
2018-08-25T01:40:18.569Z,1002.58
2018-08-25T01:40:44.729Z,1002.6
2018-08-25T01:41:10.870Z,1002.62
2018-08-25T01:41:37.002Z,1002.58
2018-08-25T01:42:03.132Z,1002.57
2018-08-25T01:42:29.300Z,1002.56
2018-08-25T01:42:55.432Z,1002.55
2018-08-25T01:43:21.572Z,1002.53
2018-08-25T01:43:47.705Z,1002.61
2018-08-25T01:44:13.838Z,1002.62
2018-08-25T01:44:39.968Z,1002.62
2018-08-25T01:45:06.107Z,1002.58
2018-08-25T01:45:32.263Z,1002.59
2018-08-25T01:45:58.400Z,1002.57
2018-08-25T01:46:24.538Z,1002.56
2018-08-25T01:46:50.673Z,1002.57
2018-08-25T01:47:16.807Z,1002.57
2018-08-25T01:47:42.938Z,1002.55
2018-08-25T01:48:09.075Z,1002.61
2018-08-25T01:48:35.225Z,1002.56
2018-08-25T01:49:01.356Z,1002.57
2018-08-25T01:49:27.494Z,1002.59
2018-08-25T01:49:53.631Z,1002.57
2018-08-25T01:50:19.761Z,1002.57
2018-08-25T01:50:45.890Z,1002.6
2018-08-25T01:51:12.026Z,1002.58
2018-08-25T01:51:38.155Z,1002.57
2018-08-25T01:52:04.293Z,1002.57
2018-08-25T01:52:30.449Z,1002.53
2018-08-25T01:52:56.589Z,1002.54
2018-08-25T01:53:22.724Z,1002.52
2018-08-25T01:53:48.858Z,1002.54
2018-08-25T01:54:14.994Z,1002.5
2018-08-25T01:54:41.129Z,1002.51
2018-08-25T01:55:07.289Z,1002.45
2018-08-25T01:55:33.421Z,1002.49
2018-08-25T01:55:59.558Z,1002.48
2018-08-25T01:56:25.688Z,1002.45
2018-08-25T01:56:51.819Z,1002.44
2018-08-25T01:57:17.955Z,1002.46
2018-08-25T01:57:44.100Z,1002.43
2018-08-25T01:58:10.251Z,1002.44
2018-08-25T01:58:36.402Z,1002.44
2018-08-25T01:59:02.539Z,1002.44
2018-08-25T01:59:28.675Z,1002.42
2018-08-25T01:59:54.838Z,1002.44
2018-08-25T02:00:21.014Z,1002.4
2018-08-25T02:00:47.196Z,1002.45
2018-08-25T02:01:13.355Z,1002.42
2018-08-25T02:01:39.502Z,1002.45
2018-08-25T02:02:05.635Z,1002.4
2018-08-25T02:02:31.811Z,1002.4
2018-08-25T02:02:57.902Z,1002.39
2018-08-25T02:03:24.034Z,1002.4
2018-08-25T02:03:50.193Z,1002.39
2018-08-25T02:04:16.326Z,1002.38
2018-08-25T02:04:42.466Z,1002.42
2018-08-25T02:05:08.619Z,1002.37
2018-08-25T02:05:34.756Z,1002.38
2018-08-25T02:06:00.902Z,1002.4
2018-08-25T02:06:27.037Z,1002.37
2018-08-25T02:06:53.166Z,1002.35
2018-08-25T02:07:19.300Z,1002.32
2018-08-25T02:07:45.431Z,1002.32
2018-08-25T02:08:11.572Z,1002.3
2018-08-25T02:08:37.702Z,1002.33
2018-08-25T02:09:03.852Z,1002.26
2018-08-25T02:09:30.037Z,1002.29
2018-08-25T02:09:56.165Z,1002.25
2018-08-25T02:10:22.306Z,1002.26
2018-08-25T02:10:48.436Z,1002.25
2018-08-25T02:11:14.573Z,1002.21
2018-08-25T02:11:40.708Z,1002.23
2018-08-25T02:12:06.840Z,1002.22
2018-08-25T02:12:32.966Z,1002.19
2018-08-25T02:12:59.114Z,1002.21
2018-08-25T02:13:25.252Z,1002.21
2018-08-25T02:13:51.383Z,1002.18
2018-08-25T02:14:17.518Z,1002.23
2018-08-25T02:14:43.656Z,1002.22
2018-08-25T02:15:09.782Z,1002.22
2018-08-25T02:15:35.956Z,1002.19
2018-08-25T02:16:02.081Z,1002.16
2018-08-25T02:16:28.215Z,1002.19
2018-08-25T02:16:54.350Z,1002.16
2018-08-25T02:17:20.481Z,1002.12
2018-08-25T02:17:46.617Z,1002.17
2018-08-25T02:18:12.761Z,1002.13
2018-08-25T02:18:38.934Z,1002.1
2018-08-25T02:19:05.097Z,1002.1
2018-08-25T02:19:31.238Z,1002.04
2018-08-25T02:19:57.396Z,1002.06
2018-08-25T02:20:23.539Z,1002.04
2018-08-25T02:20:49.691Z,1002.04
2018-08-25T02:21:15.847Z,1002.07
2018-08-25T02:21:41.978Z,1002.04
2018-08-25T02:22:08.115Z,1002.04
2018-08-25T02:22:34.269Z,1002.05
2018-08-25T02:23:00.426Z,1002.05
2018-08-25T02:23:26.561Z,1002.06
2018-08-25T02:23:52.724Z,1002.07
2018-08-25T02:24:18.859Z,1002.03
2018-08-25T02:24:44.995Z,1002.06
2018-08-25T02:25:11.150Z,1002.08
2018-08-25T02:25:37.284Z,1002.04
2018-08-25T02:26:03.429Z,1002.04
2018-08-25T02:26:29.560Z,1002.04
2018-08-25T02:26:55.694Z,1002.07
2018-08-25T02:27:21.834Z,1002.08
2018-08-25T02:27:47.991Z,1002.12
2018-08-25T02:28:14.197Z,1002.06
2018-08-25T02:28:40.274Z,1002.06
2018-08-25T02:29:06.406Z,1002.04
2018-08-25T02:29:32.542Z,1002
2018-08-25T02:29:58.676Z,1002.01
2018-08-25T02:30:24.856Z,1002.02
2018-08-25T02:30:50.992Z,1002.04
2018-08-25T02:31:17.152Z,1002.03
2018-08-25T02:31:43.304Z,1001.98
2018-08-25T02:32:09.464Z,1002.03
2018-08-25T02:32:35.642Z,1001.99
2018-08-25T02:33:01.813Z,1002.03
2018-08-25T02:33:27.941Z,1002.01
2018-08-25T02:33:54.075Z,1002.03
2018-08-25T02:34:20.210Z,1001.94
2018-08-25T02:34:46.367Z,1001.94
2018-08-25T02:35:12.540Z,1001.94
2018-08-25T02:35:38.678Z,1001.95
2018-08-25T02:36:04.853Z,1001.95
2018-08-25T02:36:30.984Z,1001.94
2018-08-25T02:36:57.124Z,1001.91
2018-08-25T02:37:23.248Z,1001.9
2018-08-25T02:37:49.401Z,1001.95
2018-08-25T02:38:15.533Z,1001.91
2018-08-25T02:38:41.702Z,1001.91
2018-08-25T02:39:07.845Z,1001.86
2018-08-25T02:39:33.993Z,1001.88
2018-08-25T02:40:00.157Z,1001.89
2018-08-25T02:40:26.336Z,1001.91
2018-08-25T02:40:52.475Z,1001.88
2018-08-25T02:41:18.606Z,1001.89
2018-08-25T02:41:44.745Z,1001.93
2018-08-25T02:42:10.876Z,1001.88
2018-08-25T02:42:37.030Z,1001.87
2018-08-25T02:43:03.194Z,1001.83
2018-08-25T02:43:29.372Z,1001.8
2018-08-25T02:43:55.515Z,1001.8
2018-08-25T02:44:21.671Z,1001.78
2018-08-25T02:44:47.802Z,1001.77
2018-08-25T02:45:13.942Z,1001.77
2018-08-25T02:45:40.077Z,1001.75
2018-08-25T02:46:06.212Z,1001.77
2018-08-25T02:46:32.372Z,1001.78
2018-08-25T02:46:58.527Z,1001.72
2018-08-25T02:47:24.688Z,1001.72
2018-08-25T02:47:50.853Z,1001.77
2018-08-25T02:48:17.005Z,1001.74
2018-08-25T02:48:43.191Z,1001.73
2018-08-25T02:49:09.326Z,1001.72
2018-08-25T02:49:35.456Z,1001.74
2018-08-25T02:50:01.618Z,1001.74
2018-08-25T02:50:27.775Z,1001.72
2018-08-25T02:50:53.928Z,1001.75
2018-08-25T02:51:20.063Z,1001.77
2018-08-25T02:51:46.218Z,1001.76
2018-08-25T02:52:12.354Z,1001.76
2018-08-25T02:52:38.485Z,1001.71
2018-08-25T02:53:04.618Z,1001.69
2018-08-25T02:53:30.747Z,1001.74
2018-08-25T02:53:56.916Z,1001.73
2018-08-25T02:54:23.079Z,1001.68
2018-08-25T02:54:49.211Z,1001.65
2018-08-25T02:55:15.372Z,1001.71
2018-08-25T02:55:41.507Z,1001.75
2018-08-25T02:56:07.644Z,1001.71
2018-08-25T02:56:33.772Z,1001.73
2018-08-25T02:56:59.906Z,1001.71
2018-08-25T02:57:26.066Z,1001.72
2018-08-25T02:57:52.199Z,1001.67
2018-08-25T02:58:18.330Z,1001.73
2018-08-25T02:58:44.464Z,1001.71
2018-08-25T02:59:10.604Z,1001.7
2018-08-25T02:59:36.763Z,1001.68
2018-08-25T03:00:02.924Z,1001.71
2018-08-25T03:00:29.106Z,1001.66
2018-08-25T03:00:55.238Z,1001.64
2018-08-25T03:01:21.367Z,1001.67
2018-08-25T03:01:47.509Z,1001.71
2018-08-25T03:02:13.680Z,1001.66
2018-08-25T03:02:39.869Z,1001.65
2018-08-25T03:03:06.020Z,1001.61
2018-08-25T03:03:32.154Z,1001.68
2018-08-25T03:03:58.288Z,1001.61
2018-08-25T03:04:24.424Z,1001.65
2018-08-25T03:04:50.591Z,1001.63
2018-08-25T03:05:16.742Z,1001.67
2018-08-25T03:05:42.885Z,1001.62
2018-08-25T03:06:09.013Z,1001.64
2018-08-25T03:06:35.172Z,1001.59
2018-08-25T03:07:01.334Z,1001.59
2018-08-25T03:07:27.469Z,1001.57
2018-08-25T03:07:53.602Z,1001.58
2018-08-25T03:08:19.733Z,1001.55
2018-08-25T03:08:45.932Z,1001.54
2018-08-25T03:09:12.062Z,1001.54
2018-08-25T03:09:38.214Z,1001.56
2018-08-25T03:10:04.334Z,1001.56
2018-08-25T03:10:30.488Z,1001.61
2018-08-25T03:10:56.621Z,1001.57
2018-08-25T03:11:22.759Z,1001.53
2018-08-25T03:11:48.890Z,1001.65
2018-08-25T03:12:15.051Z,1001.58
2018-08-25T03:12:41.188Z,1001.63
2018-08-25T03:13:07.322Z,1001.68
2018-08-25T03:13:33.455Z,1001.65
2018-08-25T03:13:59.582Z,1001.63
2018-08-25T03:14:25.718Z,1001.62
2018-08-25T03:14:51.856Z,1001.59
2018-08-25T03:15:18.039Z,1001.58
2018-08-25T03:15:44.168Z,1001.57
2018-08-25T03:16:10.327Z,1001.58
2018-08-25T03:16:36.457Z,1001.6
2018-08-25T03:17:02.587Z,1001.48
2018-08-25T03:17:28.723Z,1001.5
2018-08-25T03:17:54.856Z,1001.5
2018-08-25T03:18:20.989Z,1001.46
2018-08-25T03:18:47.122Z,1001.43
2018-08-25T03:19:13.275Z,1001.44
2018-08-25T03:19:39.407Z,1001.44
2018-08-25T03:20:05.538Z,1001.41
2018-08-25T03:20:31.677Z,1001.44
2018-08-25T03:20:57.857Z,1001.41
2018-08-25T03:21:24.010Z,1001.4
2018-08-25T03:21:50.171Z,1001.4
2018-08-25T03:22:16.334Z,1001.42
2018-08-25T03:22:42.469Z,1001.42
2018-08-25T03:23:08.624Z,1001.4
2018-08-25T03:23:34.758Z,1001.34
2018-08-25T03:24:00.937Z,1001.35
2018-08-25T03:24:27.074Z,1001.32
2018-08-25T03:24:53.217Z,1001.37
2018-08-25T03:25:19.357Z,1001.39
2018-08-25T03:25:45.492Z,1001.34
2018-08-25T03:26:11.651Z,1001.34
2018-08-25T03:26:37.778Z,1001.31
2018-08-25T03:27:03.915Z,1001.33
2018-08-25T03:27:30.079Z,1001.33
2018-08-25T03:27:56.205Z,1001.36
2018-08-25T03:28:22.346Z,1001.3
2018-08-25T03:28:48.478Z,1001.3
2018-08-25T03:29:14.605Z,1001.32
2018-08-25T03:29:40.735Z,1001.3
2018-08-25T03:30:06.931Z,1001.39
2018-08-25T03:30:33.103Z,1001.37
2018-08-25T03:30:59.282Z,1001.41
2018-08-25T03:31:25.524Z,1001.39
2018-08-25T03:31:51.676Z,1001.37
2018-08-25T03:32:17.846Z,1001.4
2018-08-25T03:32:43.994Z,1001.41
2018-08-25T03:33:10.153Z,1001.46
2018-08-25T03:33:36.281Z,1001.5
2018-08-25T03:34:02.471Z,1001.51
2018-08-25T03:34:28.608Z,1001.55
2018-08-25T03:34:54.759Z,1001.56
2018-08-25T03:35:20.893Z,1001.53
2018-08-25T03:35:47.056Z,1001.54
2018-08-25T03:36:13.188Z,1001.64
2018-08-25T03:36:39.316Z,1001.64
2018-08-25T03:37:05.449Z,1001.61
2018-08-25T03:37:31.589Z,1001.62
2018-08-25T03:37:57.730Z,1001.62
2018-08-25T03:38:23.856Z,1001.69
2018-08-25T03:38:49.989Z,1001.65
2018-08-25T03:39:16.124Z,1001.74
2018-08-25T03:39:42.275Z,1001.71
2018-08-25T03:40:08.410Z,1001.67
2018-08-25T03:40:34.571Z,1001.68
2018-08-25T03:41:00.722Z,1001.67
2018-08-25T03:41:26.855Z,1001.85
2018-08-25T03:41:52.986Z,1001.9
2018-08-25T03:42:19.127Z,1001.8
2018-08-25T03:42:45.275Z,1001.78
2018-08-25T03:43:11.428Z,1001.82
2018-08-25T03:43:37.555Z,1001.79
2018-08-25T03:44:03.697Z,1001.8
2018-08-25T03:44:29.826Z,1001.74
2018-08-25T03:44:55.955Z,1001.78
2018-08-25T03:45:22.115Z,1001.72
2018-08-25T03:45:48.248Z,1001.72
2018-08-25T03:46:14.384Z,1001.78
2018-08-25T03:46:40.518Z,1001.72
2018-08-25T03:47:06.692Z,1001.75
2018-08-25T03:47:32.827Z,1001.75
2018-08-25T03:47:59.005Z,1001.67
2018-08-25T03:48:25.142Z,1001.68
2018-08-25T03:48:51.323Z,1001.7
2018-08-25T03:49:17.471Z,1001.69
2018-08-25T03:49:43.597Z,1001.67
2018-08-25T03:50:09.757Z,1001.76
2018-08-25T03:50:35.895Z,1001.67
2018-08-25T03:51:02.037Z,1001.73
2018-08-25T03:51:28.192Z,1001.74
2018-08-25T03:51:54.326Z,1001.68
2018-08-25T03:52:20.458Z,1001.65
2018-08-25T03:52:46.606Z,1001.7
2018-08-25T03:53:12.765Z,1001.61
2018-08-25T03:53:38.902Z,1001.64
2018-08-25T03:54:05.060Z,1001.62
2018-08-25T03:54:31.194Z,1001.64
2018-08-25T03:54:57.327Z,1001.64
2018-08-25T03:55:23.502Z,1001.56
2018-08-25T03:55:49.596Z,1001.58
2018-08-25T03:56:15.755Z,1001.59
2018-08-25T03:56:41.909Z,1001.61
2018-08-25T03:57:08.042Z,1001.58
2018-08-25T03:57:34.170Z,1001.59
2018-08-25T03:58:00.323Z,1001.6
2018-08-25T03:58:26.483Z,1001.57
2018-08-25T03:58:52.663Z,1001.53
2018-08-25T03:59:18.810Z,1001.52
2018-08-25T03:59:44.974Z,1001.52
2018-08-25T04:00:11.116Z,1001.51
2018-08-25T04:00:37.260Z,1001.52
2018-08-25T04:01:03.416Z,1001.5
2018-08-25T04:01:29.613Z,1001.46
2018-08-25T04:01:55.727Z,1001.42
2018-08-25T04:02:21.892Z,1001.41
2018-08-25T04:02:48.029Z,1001.45
2018-08-25T04:03:14.182Z,1001.45
2018-08-25T04:03:40.332Z,1001.47
2018-08-25T04:04:06.482Z,1001.46
2018-08-25T04:04:32.635Z,1001.47
2018-08-25T04:04:58.792Z,1001.41
2018-08-25T04:05:24.949Z,1001.42
2018-08-25T04:05:51.117Z,1001.43
2018-08-25T04:06:17.246Z,1001.47
2018-08-25T04:06:43.384Z,1001.49
2018-08-25T04:07:09.517Z,1001.43
2018-08-25T04:07:35.668Z,1001.47
2018-08-25T04:08:01.801Z,1001.41
2018-08-25T04:08:27.932Z,1001.43
2018-08-25T04:08:54.111Z,1001.41
2018-08-25T04:09:20.272Z,1001.43
2018-08-25T04:09:46.407Z,1001.47
2018-08-25T04:10:12.561Z,1001.44
2018-08-25T04:10:38.721Z,1001.39
2018-08-25T04:11:04.856Z,1001.39
2018-08-25T04:11:31.010Z,1001.43
2018-08-25T04:11:57.142Z,1001.36
2018-08-25T04:12:23.272Z,1001.36
2018-08-25T04:12:49.409Z,1001.4
2018-08-25T04:13:15.541Z,1001.33
2018-08-25T04:13:41.677Z,1001.33
2018-08-25T04:14:07.829Z,1001.36
2018-08-25T04:14:34.015Z,1001.36
2018-08-25T04:15:00.195Z,1001.36
2018-08-25T04:15:26.305Z,1001.31
2018-08-25T04:15:52.441Z,1001.37
2018-08-25T04:16:18.601Z,1001.41
2018-08-25T04:16:44.740Z,1001.36
2018-08-25T04:17:10.868Z,1001.31
2018-08-25T04:17:37.026Z,1001.29
2018-08-25T04:18:03.160Z,1001.36
2018-08-25T04:18:29.305Z,1001.34
2018-08-25T04:18:55.486Z,1001.3
2018-08-25T04:19:21.650Z,1001.32
2018-08-25T04:19:47.835Z,1001.34
2018-08-25T04:20:13.992Z,1001.32
2018-08-25T04:20:40.154Z,1001.31
2018-08-25T04:21:06.283Z,1001.31
2018-08-25T04:21:32.442Z,1001.33
2018-08-25T04:21:58.576Z,1001.33
2018-08-25T04:22:24.755Z,1001.32
2018-08-25T04:22:50.927Z,1001.4
2018-08-25T04:23:17.064Z,1001.33
2018-08-25T04:23:43.225Z,1001.38
2018-08-25T04:24:09.405Z,1001.47
2018-08-25T04:24:35.538Z,1001.43
2018-08-25T04:25:01.665Z,1001.43
2018-08-25T04:25:27.800Z,1001.4
2018-08-25T04:25:53.934Z,1001.38
2018-08-25T04:26:20.067Z,1001.34
2018-08-25T04:26:46.199Z,1001.32
2018-08-25T04:27:12.339Z,1001.29
2018-08-25T04:27:38.492Z,1001.33
2018-08-25T04:28:04.653Z,1001.28
2018-08-25T04:28:30.789Z,1001.3
2018-08-25T04:28:56.923Z,1001.27
2018-08-25T04:29:23.105Z,1001.3
2018-08-25T04:29:49.278Z,1001.26
2018-08-25T04:30:15.437Z,1001.26
2018-08-25T04:30:41.577Z,1001.21
2018-08-25T04:31:07.707Z,1001.19
2018-08-25T04:31:33.882Z,1001.26
2018-08-25T04:32:00.076Z,1001.21
2018-08-25T04:32:26.221Z,1001.22
2018-08-25T04:32:52.385Z,1001.17
2018-08-25T04:33:18.551Z,1001.18
2018-08-25T04:33:44.660Z,1001.25
2018-08-25T04:34:10.820Z,1001.33
2018-08-25T04:34:36.981Z,1001.28
2018-08-25T04:35:03.144Z,1001.32
2018-08-25T04:35:29.300Z,1001.25
2018-08-25T04:35:55.465Z,1001.33
2018-08-25T04:36:21.596Z,1001.29
2018-08-25T04:36:47.742Z,1001.27
2018-08-25T04:37:13.904Z,1001.3
2018-08-25T04:37:40.035Z,1001.3
2018-08-25T04:38:06.192Z,1001.3
2018-08-25T04:38:32.322Z,1001.32
2018-08-25T04:38:58.462Z,1001.28
2018-08-25T04:39:24.617Z,1001.3
2018-08-25T04:39:50.753Z,1001.28
2018-08-25T04:40:16.911Z,1001.34
2018-08-25T04:40:43.046Z,1001.27
2018-08-25T04:41:09.210Z,1001.32
2018-08-25T04:41:35.352Z,1001.38
2018-08-25T04:42:01.555Z,1001.36
2018-08-25T04:42:27.710Z,1001.38
2018-08-25T04:42:53.868Z,1001.31
2018-08-25T04:43:20.004Z,1001.27
2018-08-25T04:43:46.159Z,1001.26
2018-08-25T04:44:12.319Z,1001.23
2018-08-25T04:44:38.450Z,1001.21
2018-08-25T04:45:04.594Z,1001.21
2018-08-25T04:45:30.762Z,1001.21
2018-08-25T04:45:56.913Z,1001.23
2018-08-25T04:46:23.101Z,1001.24
2018-08-25T04:46:49.244Z,1001.21
2018-08-25T04:47:15.388Z,1001.2
2018-08-25T04:47:41.549Z,1001.19
2018-08-25T04:48:07.684Z,1001.21
2018-08-25T04:48:33.863Z,1001.21
2018-08-25T04:48:59.994Z,1001.19
2018-08-25T04:49:26.121Z,1001.19
2018-08-25T04:49:52.281Z,1001.18
2018-08-25T04:50:18.431Z,1001.18
2018-08-25T04:50:44.569Z,1001.21
2018-08-25T04:51:10.704Z,1001.24
2018-08-25T04:51:36.834Z,1001.26
2018-08-25T04:52:02.966Z,1001.24
2018-08-25T04:52:29.093Z,1001.25
2018-08-25T04:52:55.267Z,1001.27
2018-08-25T04:53:21.423Z,1001.18
2018-08-25T04:53:47.558Z,1001.22
2018-08-25T04:54:13.693Z,1001.21
2018-08-25T04:54:39.858Z,1001.19
2018-08-25T04:55:06.014Z,1001.18
2018-08-25T04:55:32.144Z,1001.24
2018-08-25T04:55:58.311Z,1001.25
2018-08-25T04:56:24.440Z,1001.23
2018-08-25T04:56:50.573Z,1001.27
2018-08-25T04:57:16.764Z,1001.24
2018-08-25T04:57:42.893Z,1001.24
2018-08-25T04:58:09.024Z,1001.28
2018-08-25T04:58:35.154Z,1001.31
2018-08-25T04:59:01.313Z,1001.29
2018-08-25T04:59:27.440Z,1001.29
2018-08-25T04:59:53.581Z,1001.28
2018-08-25T05:00:19.712Z,1001.27
2018-08-25T05:00:45.878Z,1001.27
2018-08-25T05:01:12.029Z,1001.23
2018-08-25T05:01:38.162Z,1001.22
2018-08-25T05:02:04.360Z,1001.23
2018-08-25T05:02:30.459Z,1001.26
2018-08-25T05:02:56.590Z,1001.27
2018-08-25T05:03:22.753Z,1001.24
2018-08-25T05:03:48.924Z,1001.2
2018-08-25T05:04:15.080Z,1001.22
2018-08-25T05:04:41.215Z,1001.22
2018-08-25T05:05:07.349Z,1001.25
2018-08-25T05:05:33.502Z,1001.24
2018-08-25T05:05:59.636Z,1001.3
2018-08-25T05:06:25.797Z,1001.24
2018-08-25T05:06:51.953Z,1001.27
2018-08-25T05:07:18.135Z,1001.22
2018-08-25T05:07:44.372Z,1001.26
2018-08-25T05:08:10.500Z,1001.3
2018-08-25T05:08:36.656Z,1001.25
2018-08-25T05:09:02.790Z,1001.25
2018-08-25T05:09:28.922Z,1001.26
2018-08-25T05:09:55.078Z,1001.28
2018-08-25T05:10:21.240Z,1001.26
2018-08-25T05:10:47.397Z,1001.26
2018-08-25T05:11:13.528Z,1001.28
2018-08-25T05:11:39.749Z,1001.32
2018-08-25T05:12:05.905Z,1001.42
2018-08-25T05:12:32.036Z,1001.31
2018-08-25T05:12:58.195Z,1001.35
2018-08-25T05:13:24.330Z,1001.3
2018-08-25T05:13:50.521Z,1001.22
2018-08-25T05:14:16.692Z,1001.25
2018-08-25T05:14:42.819Z,1001.23
2018-08-25T05:15:08.958Z,1001.28
2018-08-25T05:15:35.116Z,1001.23
2018-08-25T05:16:01.248Z,1001.21
2018-08-25T05:16:27.380Z,1001.19
2018-08-25T05:16:53.511Z,1001.2
2018-08-25T05:17:19.650Z,1001.2